»·PEaware :: N43655 KSBA-KLAS

N43655 :: KSBA-KLAS

FLIGHT INFORMATION

Flight Status: Arrived
Operator: Privately registered:
United States
More flights under this callsign
Pilot: Thomas M. (19504)
Aircraft: CIRRUS SR-22
(SR22)
More flights by this aircraft type
Origin: KSBA Santa Barbara Mun
United States
Destination: KLAS McCarran Intl
United States
More flights between these airports :: More routes between these airports
Route: KWANG5 HENER V186 FIM V386 PMD V12 HEC CRESO4
File this flight plan on PilotEdge
Remarks:
Altitude:
(Current/Filed)
16,000ft
Speed:
(Current/Filed)
175kts
Departed: 20-Mar-20 07:15 PM
Arrived: 20-Mar-20 08:43 PM
Distance/Time
Traveled:
250nm/1:28
Distance/Time
To Go:
Arrived

Flight Plot

Page will automatically refresh every two minutes.

Flight plan parsing failed; only flown route is shown


Map Options




Map Legend


Flown Route
Filed Route
Departure Airport
Arrival Airport
Navaid (VOR, NDB)
Fix

Horizontal Profiles

Position Reports

Time Latitude Longitude Heading Altitude Ground
Speed
20-Mar-20 18:52 34.422656 -119.835590 340 10ft 0kts
20-Mar-20 18:53 34.422656 -119.835590 340 10ft 0kts
20-Mar-20 18:54 34.422656 -119.835590 340 10ft 0kts
20-Mar-20 18:55 34.422656 -119.835590 340 10ft 0kts
20-Mar-20 18:56 34.422656 -119.835590 340 10ft 0kts
20-Mar-20 18:57 34.422656 -119.835590 340 10ft 0kts
20-Mar-20 18:58 34.422656 -119.835590 340 10ft 0kts
20-Mar-20 18:59 34.422726 -119.835622 339 10ft 0kts
20-Mar-20 19:00 34.422726 -119.835622 339 10ft 0kts
20-Mar-20 19:01 34.422726 -119.835622 339 10ft 0kts
20-Mar-20 19:02 34.422726 -119.835622 339 10ft 0kts
20-Mar-20 19:03 34.422726 -119.835622 339 10ft 0kts
20-Mar-20 19:04 34.422726 -119.835622 339 10ft 0kts
20-Mar-20 19:05 34.422726 -119.835622 339 10ft 0kts
20-Mar-20 19:06 34.422726 -119.835622 339 10ft 0kts
20-Mar-20 19:07 34.422734 -119.835639 293 10ft 0kts
20-Mar-20 19:08 34.422702 -119.836821 260 11ft 4kts
20-Mar-20 19:09 34.426654 -119.838156 56 10ft 15kts
20-Mar-20 19:10 34.427025 -119.834660 17 10ft 0kts
20-Mar-20 19:11 34.427025 -119.834660 17 10ft 0kts
20-Mar-20 19:12 34.427025 -119.834660 17 10ft 0kts
20-Mar-20 19:13 34.427027 -119.834659 19 10ft 0kts
20-Mar-20 19:14 34.427421 -119.856592 257 681ft 113kts
20-Mar-20 19:15 34.409813 -119.852492 90 2593ft 100kts
20-Mar-20 19:16 34.414111 -119.806364 82 2995ft 171kts
20-Mar-20 19:17 34.401591 -119.756295 114 4218ft 144kts
20-Mar-20 19:18 34.385361 -119.713577 115 5711ft 137kts
20-Mar-20 19:19 34.369450 -119.671928 115 7205ft 137kts
20-Mar-20 19:20 34.352279 -119.627119 115 7998ft 170kts
20-Mar-20 19:21 34.331180 -119.571907 115 7996ft 185kts
20-Mar-20 19:22 34.318752 -119.513341 87 8194ft 180kts
20-Mar-20 19:23 34.322385 -119.455453 86 8990ft 170kts
20-Mar-20 19:24 34.325918 -119.398384 87 9509ft 171kts
20-Mar-20 19:25 34.329415 -119.342479 87 10421ft 152kts
20-Mar-20 19:26 34.332406 -119.294737 89 11903ft 136kts
20-Mar-20 19:27 34.335185 -119.250103 91 13396ft 131kts
20-Mar-20 19:28 34.337815 -119.206958 93 14882ft 128kts
20-Mar-20 19:29 34.340679 -119.152910 91 15008ft 183kts
20-Mar-20 19:30 34.344541 -119.089570 91 15001ft 189kts
20-Mar-20 19:31 34.348297 -119.026488 91 14998ft 187kts
20-Mar-20 19:32 34.352013 -118.962581 91 14999ft 195kts
20-Mar-20 19:33 34.355863 -118.895917 91 14999ft 201kts
20-Mar-20 19:34 34.374088 -118.830284 71 14999ft 210kts
20-Mar-20 19:35 34.396384 -118.764505 70 14998ft 212kts
20-Mar-20 19:36 34.418854 -118.698351 70 14998ft 212kts
20-Mar-20 19:37 34.441252 -118.632054 70 15000ft 212kts
20-Mar-20 19:38 34.463575 -118.565900 70 15004ft 212kts
20-Mar-20 19:39 34.485899 -118.499595 70 15012ft 212kts
20-Mar-20 19:40 34.508224 -118.433137 70 15022ft 212kts
20-Mar-20 19:41 34.530434 -118.366886 70 15024ft 212kts
20-Mar-20 19:42 34.552556 -118.300777 71 15019ft 212kts
20-Mar-20 19:43 34.574723 -118.234340 71 15018ft 212kts
20-Mar-20 19:44 34.596841 -118.167951 71 15018ft 212kts
20-Mar-20 19:45 34.618948 -118.101447 71 15018ft 212kts
20-Mar-20 19:46 34.634626 -118.033338 85 15016ft 209kts
20-Mar-20 19:47 34.642477 -117.963096 86 14996ft 209kts
20-Mar-20 19:48 34.650101 -117.893296 86 14993ft 209kts
20-Mar-20 19:49 34.657700 -117.823185 86 14990ft 209kts
20-Mar-20 19:50 34.665255 -117.753155 86 14992ft 209kts
20-Mar-20 19:51 34.672764 -117.683244 86 14996ft 208kts
20-Mar-20 19:52 34.680213 -117.613407 86 15000ft 208kts
20-Mar-20 19:53 34.687631 -117.543475 86 15001ft 208kts
20-Mar-20 19:54 34.695001 -117.473632 86 15001ft 208kts
20-Mar-20 19:55 34.702255 -117.404674 86 15002ft 202kts
20-Mar-20 19:56 34.709489 -117.335072 87 15000ft 209kts
20-Mar-20 19:58 34.716817 -117.264533 87 15000ft 210kts
20-Mar-20 19:59 34.724075 -117.194183 87 15000ft 210kts
20-Mar-20 20:00 34.731308 -117.123632 87 15000ft 210kts
20-Mar-20 20:01 34.738550 -117.052534 87 14997ft 213kts
20-Mar-20 20:02 34.745856 -116.980088 86 14995ft 218kts
20-Mar-20 20:03 34.753279 -116.905878 85 14993ft 224kts
20-Mar-20 20:04 34.760946 -116.829870 84 14992ft 227kts
20-Mar-20 20:05 34.768585 -116.753468 84 14992ft 228kts
20-Mar-20 20:06 34.776161 -116.676844 84 14993ft 228kts
20-Mar-20 20:07 34.783674 -116.600298 84 14993ft 228kts
20-Mar-20 20:08 34.791160 -116.523583 84 14994ft 228kts
20-Mar-20 20:09 34.808088 -116.450892 49 14996ft 228kts
20-Mar-20 20:10 34.850310 -116.393423 43 14995ft 227kts
20-Mar-20 20:11 34.893393 -116.337200 44 15005ft 227kts
20-Mar-20 20:12 34.936558 -116.280878 46 15017ft 227kts
20-Mar-20 20:13 34.979658 -116.224363 48 15021ft 227kts
20-Mar-20 20:14 35.022436 -116.168186 50 15018ft 225kts
20-Mar-20 20:15 35.064743 -116.112373 50 15012ft 222kts
20-Mar-20 20:15 35.099961 -116.065934 50 14828ft 228kts
20-Mar-20 20:17 35.150968 -115.998582 50 14163ft 233kts
20-Mar-20 20:18 35.189343 -115.947816 49 13458ft 233kts
20-Mar-20 20:18 35.225789 -115.899555 49 12785ft 230kts
20-Mar-20 20:19 35.268850 -115.842434 49 11978ft 226kts
20-Mar-20 20:21 35.318067 -115.777085 49 11041ft 223kts
20-Mar-20 20:21 35.352866 -115.730771 49 10371ft 221kts
20-Mar-20 20:22 35.393308 -115.676920 49 10043ft 206kts
20-Mar-20 20:24 35.437841 -115.617461 49 10045ft 201kts
20-Mar-20 20:24 35.469427 -115.575230 49 10045ft 201kts
20-Mar-20 20:25 35.507260 -115.524561 49 10045ft 201kts
20-Mar-20 20:26 35.545101 -115.473826 49 10045ft 201kts
20-Mar-20 20:27 35.582844 -115.423148 49 10046ft 201kts
20-Mar-20 20:28 35.620631 -115.372331 49 10046ft 201kts
20-Mar-20 20:29 35.658446 -115.321386 49 10046ft 201kts
20-Mar-20 20:30 35.699638 -115.275911 21 9947ft 208kts
20-Mar-20 20:31 35.755430 -115.249598 21 9257ft 217kts
20-Mar-20 20:32 35.811809 -115.223159 21 8562ft 216kts
20-Mar-20 20:33 35.867897 -115.196828 21 7865ft 214kts
20-Mar-20 20:34 35.923350 -115.170902 21 7171ft 212kts
20-Mar-20 20:35 35.978441 -115.145401 21 6476ft 210kts
20-Mar-20 20:36 36.032803 -115.120610 21 6043ft 202kts
20-Mar-20 20:37 36.084488 -115.097650 21 5947ft 198kts
20-Mar-20 20:38 36.137323 -115.073866 21 5278ft 201kts
20-Mar-20 20:39 36.181318 -115.080231 278 5113ft 191kts
20-Mar-20 20:40 36.151499 -115.128156 192 4090ft 181kts
20-Mar-20 20:41 36.110047 -115.150105 205 2243ft 138kts
20-Mar-20 20:42 36.091112 -115.161374 211 2116ft 22kts
20-Mar-20 20:43 36.089564 -115.163988 293 2129ft 24kts

Navigation Log

Ident Type
Flight plan parsing failed, navigation log unavailable